sensor_id;sensor_type;location;lat;lon;timestamp;temperature;humidity
18930;DHT22;43305;52.186;5.598;2022-09-23T00:01:53;10.40;99.90
18930;DHT22;43305;52.186;5.598;2022-09-23T00:04:21;10.40;99.90
18930;DHT22;43305;52.186;5.598;2022-09-23T00:06:48;10.40;99.90
18930;DHT22;43305;52.186;5.598;2022-09-23T00:09:15;10.40;99.90
18930;DHT22;43305;52.186;5.598;2022-09-23T00:11:42;10.40;99.90
18930;DHT22;43305;52.186;5.598;2022-09-23T00:14:11;10.30;99.90
18930;DHT22;43305;52.186;5.598;2022-09-23T00:16:38;10.30;99.90
18930;DHT22;43305;52.186;5.598;2022-09-23T00:19:07;10.30;99.90
18930;DHT22;43305;52.186;5.598;2022-09-23T00:21:35;10.20;99.90
18930;DHT22;43305;52.186;5.598;2022-09-23T00:24:02;10.20;99.90
18930;DHT22;43305;52.186;5.598;2022-09-23T00:26:29;10.10;99.90
18930;DHT22;43305;52.186;5.598;2022-09-23T00:28:56;10.10;99.90
18930;DHT22;43305;52.186;5.598;2022-09-23T00:31:25;10.10;99.90
18930;DHT22;43305;52.186;5.598;2022-09-23T00:33:52;10.10;99.90
18930;DHT22;43305;52.186;5.598;2022-09-23T00:36:19;10.00;99.90
18930;DHT22;43305;52.186;5.598;2022-09-23T00:38:47;10.00;99.90
18930;DHT22;43305;52.186;5.598;2022-09-23T00:41:14;10.00;99.90
18930;DHT22;43305;52.186;5.598;2022-09-23T00:43:43;10.00;99.90
18930;DHT22;43305;52.186;5.598;2022-09-23T00:46:13;10.00;99.90
18930;DHT22;43305;52.186;5.598;2022-09-23T00:48:45;10.10;99.90
18930;DHT22;43305;52.186;5.598;2022-09-23T00:51:20;10.10;99.90
18930;DHT22;43305;52.186;5.598;2022-09-23T00:53:53;10.00;99.90
18930;DHT22;43305;52.186;5.598;2022-09-23T00:56:21;10.00;99.90
18930;DHT22;43305;52.186;5.598;2022-09-23T00:58:49;10.00;99.90
18930;DHT22;43305;52.186;5.598;2022-09-23T01:01:18;10.00;99.90
18930;DHT22;43305;52.186;5.598;2022-09-23T01:03:45;9.90;99.90
18930;DHT22;43305;52.186;5.598;2022-09-23T01:06:13;9.90;99.90
18930;DHT22;43305;52.186;5.598;2022-09-23T01:08:42;9.90;99.90
18930;DHT22;43305;52.186;5.598;2022-09-23T01:11:22;9.90;99.90
18930;DHT22;43305;52.186;5.598;2022-09-23T01:13:59;9.90;99.90
18930;DHT22;43305;52.186;5.598;2022-09-23T01:16:34;9.90;99.90
18930;DHT22;43305;52.186;5.598;2022-09-23T01:19:18;9.80;99.90
18930;DHT22;43305;52.186;5.598;2022-09-23T01:21:53;9.80;99.90
18930;DHT22;43305;52.186;5.598;2022-09-23T01:24:36;9.80;99.90
18930;DHT22;43305;52.186;5.598;2022-09-23T01:27:14;9.80;99.90
18930;DHT22;43305;52.186;5.598;2022-09-23T01:30:08;9.80;99.90
18930;DHT22;43305;52.186;5.598;2022-09-23T01:32:48;9.80;99.90
18930;DHT22;43305;52.186;5.598;2022-09-23T01:35:25;9.70;99.90
18930;DHT22;43305;52.186;5.598;2022-09-23T01:37:59;9.60;99.90
18930;DHT22;43305;52.186;5.598;2022-09-23T01:40:33;9.60;99.90
18930;DHT22;43305;52.186;5.598;2022-09-23T01:43:11;9.60;99.90
18930;DHT22;43305;52.186;5.598;2022-09-23T01:45:42;9.60;99.90
18930;DHT22;43305;52.186;5.598;2022-09-23T01:48:16;9.60;99.90
18930;DHT22;43305;52.186;5.598;2022-09-23T01:50:52;9.60;99.90
18930;DHT22;43305;52.186;5.598;2022-09-23T01:53:30;9.60;99.90
18930;DHT22;43305;52.186;5.598;2022-09-23T01:56:04;9.50;99.90
18930;DHT22;43305;52.186;5.598;2022-09-23T01:58:36;9.50;99.90
18930;DHT22;43305;52.186;5.598;2022-09-23T02:01:06;9.40;99.90
18930;DHT22;43305;52.186;5.598;2022-09-23T02:03:40;9.40;99.90
18930;DHT22;43305;52.186;5.598;2022-09-23T02:06:12;9.40;99.90
18930;DHT22;43305;52.186;5.598;2022-09-23T02:08:43;9.40;99.90
18930;DHT22;43305;52.186;5.598;2022-09-23T02:11:14;9.40;99.90
18930;DHT22;43305;52.186;5.598;2022-09-23T02:13:47;9.40;99.90
18930;DHT22;43305;52.186;5.598;2022-09-23T02:16:21;9.40;99.90
18930;DHT22;43305;52.186;5.598;2022-09-23T02:18:54;9.40;99.90
18930;DHT22;43305;52.186;5.598;2022-09-23T02:21:28;9.30;99.90
18930;DHT22;43305;52.186;5.598;2022-09-23T02:24:03;9.30;99.90
18930;DHT22;43305;52.186;5.598;2022-09-23T02:26:35;9.30;99.90
18930;DHT22;43305;52.186;5.598;2022-09-23T02:29:13;9.20;99.90
18930;DHT22;43305;52.186;5.598;2022-09-23T02:31:54;9.30;99.90
18930;DHT22;43305;52.186;5.598;2022-09-23T02:34:31;9.30;99.90
18930;DHT22;43305;52.186;5.598;2022-09-23T02:37:06;9.30;99.90
18930;DHT22;43305;52.186;5.598;2022-09-23T02:39:41;9.30;99.90
18930;DHT22;43305;52.186;5.598;2022-09-23T02:42:17;9.20;99.90
18930;DHT22;43305;52.186;5.598;2022-09-23T02:44:46;9.20;99.90
18930;DHT22;43305;52.186;5.598;2022-09-23T02:47:12;9.20;99.90
18930;DHT22;43305;52.186;5.598;2022-09-23T02:49:41;9.20;99.90
18930;DHT22;43305;52.186;5.598;2022-09-23T02:52:09;9.20;99.90
18930;DHT22;43305;52.186;5.598;2022-09-23T02:54:38;9.20;99.90
18930;DHT22;43305;52.186;5.598;2022-09-23T02:57:09;9.10;99.90
18930;DHT22;43305;52.186;5.598;2022-09-23T02:59:36;9.10;99.90
18930;DHT22;43305;52.186;5.598;2022-09-23T03:02:13;9.10;99.90
18930;DHT22;43305;52.186;5.598;2022-09-23T03:04:50;9.10;99.90
18930;DHT22;43305;52.186;5.598;2022-09-23T03:07:22;9.20;99.90
18930;DHT22;43305;52.186;5.598;2022-09-23T03:09:54;9.10;99.90
18930;DHT22;43305;52.186;5.598;2022-09-23T03:12:34;9.10;99.90
18930;DHT22;43305;52.186;5.598;2022-09-23T03:15:12;9.10;99.90
18930;DHT22;43305;52.186;5.598;2022-09-23T03:17:46;9.00;99.90
18930;DHT22;43305;52.186;5.598;2022-09-23T03:20:25;9.00;99.90
18930;DHT22;43305;52.186;5.598;2022-09-23T03:22:57;9.00;99.90
18930;DHT22;43305;52.186;5.598;2022-09-23T03:25:28;8.90;99.90
18930;DHT22;43305;52.186;5.598;2022-09-23T03:28:01;8.80;99.90
18930;DHT22;43305;52.186;5.598;2022-09-23T03:30:30;8.80;99.90
18930;DHT22;43305;52.186;5.598;2022-09-23T03:33:02;8.70;99.90
18930;DHT22;43305;52.186;5.598;2022-09-23T03:35:36;8.80;99.90
18930;DHT22;43305;52.186;5.598;2022-09-23T03:38:25;8.70;99.90
18930;DHT22;43305;52.186;5.598;2022-09-23T03:40:57;8.80;99.90
18930;DHT22;43305;52.186;5.598;2022-09-23T03:43:27;8.70;99.90
18930;DHT22;43305;52.186;5.598;2022-09-23T03:45:56;8.80;99.90
18930;DHT22;43305;52.186;5.598;2022-09-23T03:48:26;8.70;99.90
18930;DHT22;43305;52.186;5.598;2022-09-23T03:50:55;8.70;99.90
18930;DHT22;43305;52.186;5.598;2022-09-23T03:53:23;8.70;99.90
18930;DHT22;43305;52.186;5.598;2022-09-23T03:55:50;8.60;99.90
18930;DHT22;43305;52.186;5.598;2022-09-23T03:58:17;8.70;99.90
18930;DHT22;43305;52.186;5.598;2022-09-23T04:00:44;8.70;99.90
18930;DHT22;43305;52.186;5.598;2022-09-23T04:03:11;8.70;99.90
18930;DHT22;43305;52.186;5.598;2022-09-23T04:05:37;8.70;99.90
18930;DHT22;43305;52.186;5.598;2022-09-23T04:08:06;8.70;99.90
18930;DHT22;43305;52.186;5.598;2022-09-23T04:10:32;8.70;99.90
18930;DHT22;43305;52.186;5.598;2022-09-23T04:13:01;8.70;99.90
18930;DHT22;43305;52.186;5.598;2022-09-23T04:15:30;8.70;99.90
18930;DHT22;43305;52.186;5.598;2022-09-23T04:18:01;8.80;99.90
18930;DHT22;43305;52.186;5.598;2022-09-23T04:20:28;8.80;99.90
18930;DHT22;43305;52.186;5.598;2022-09-23T04:22:55;8.80;99.90
18930;DHT22;43305;52.186;5.598;2022-09-23T04:25:23;8.70;99.90
18930;DHT22;43305;52.186;5.598;2022-09-23T04:27:57;8.80;99.90
18930;DHT22;43305;52.186;5.598;2022-09-23T04:30:24;8.70;99.90
18930;DHT22;43305;52.186;5.598;2022-09-23T04:32:51;8.70;99.90
18930;DHT22;43305;52.186;5.598;2022-09-23T04:35:19;8.80;99.90
18930;DHT22;43305;52.186;5.598;2022-09-23T04:37:47;8.70;99.90
18930;DHT22;43305;52.186;5.598;2022-09-23T04:40:13;8.70;99.90
18930;DHT22;43305;52.186;5.598;2022-09-23T04:42:42;8.70;99.90
18930;DHT22;43305;52.186;5.598;2022-09-23T04:45:09;8.80;99.90
18930;DHT22;43305;52.186;5.598;2022-09-23T04:47:35;8.80;99.90
18930;DHT22;43305;52.186;5.598;2022-09-23T04:50:03;8.70;99.90
18930;DHT22;43305;52.186;5.598;2022-09-23T04:52:30;8.70;99.90
18930;DHT22;43305;52.186;5.598;2022-09-23T04:54:56;8.70;99.90
18930;DHT22;43305;52.186;5.598;2022-09-23T04:57:23;8.70;99.90
18930;DHT22;43305;52.186;5.598;2022-09-23T04:59:55;8.80;99.90
18930;DHT22;43305;52.186;5.598;2022-09-23T05:02:22;8.70;99.90
18930;DHT22;43305;52.186;5.598;2022-09-23T05:04:50;8.70;99.90
18930;DHT22;43305;52.186;5.598;2022-09-23T05:07:17;8.70;99.90
18930;DHT22;43305;52.186;5.598;2022-09-23T05:09:44;8.70;99.90
18930;DHT22;43305;52.186;5.598;2022-09-23T05:12:11;8.80;99.90
18930;DHT22;43305;52.186;5.598;2022-09-23T05:14:38;8.80;99.90
18930;DHT22;43305;52.186;5.598;2022-09-23T05:17:07;8.90;99.90
18930;DHT22;43305;52.186;5.598;2022-09-23T05:19:36;8.90;99.90
18930;DHT22;43305;52.186;5.598;2022-09-23T05:22:03;8.90;99.90
18930;DHT22;43305;52.186;5.598;2022-09-23T05:24:34;9.00;99.90
18930;DHT22;43305;52.186;5.598;2022-09-23T05:27:00;9.00;99.90
18930;DHT22;43305;52.186;5.598;2022-09-23T05:29:29;9.00;99.90
18930;DHT22;43305;52.186;5.598;2022-09-23T05:31:56;9.10;99.90
18930;DHT22;43305;52.186;5.598;2022-09-23T05:34:26;9.10;99.90
18930;DHT22;43305;52.186;5.598;2022-09-23T05:36:53;9.20;99.90
18930;DHT22;43305;52.186;5.598;2022-09-23T05:39:20;9.20;99.90
18930;DHT22;43305;52.186;5.598;2022-09-23T05:41:47;9.20;99.90
18930;DHT22;43305;52.186;5.598;2022-09-23T05:44:13;9.20;99.90
18930;DHT22;43305;52.186;5.598;2022-09-23T05:46:40;9.30;99.90
18930;DHT22;43305;52.186;5.598;2022-09-23T05:49:10;9.30;99.90
18930;DHT22;43305;52.186;5.598;2022-09-23T05:51:39;9.30;99.90
18930;DHT22;43305;52.186;5.598;2022-09-23T05:54:06;9.30;99.90
18930;DHT22;43305;52.186;5.598;2022-09-23T05:56:33;9.40;99.90
18930;DHT22;43305;52.186;5.598;2022-09-23T05:59:05;9.40;99.90
18930;DHT22;43305;52.186;5.598;2022-09-23T06:01:34;9.40;99.90
18930;DHT22;43305;52.186;5.598;2022-09-23T06:04:04;9.50;99.90
18930;DHT22;43305;52.186;5.598;2022-09-23T06:06:38;9.50;99.90
18930;DHT22;43305;52.186;5.598;2022-09-23T06:09:06;9.60;99.90
18930;DHT22;43305;52.186;5.598;2022-09-23T06:11:37;9.60;99.90
18930;DHT22;43305;52.186;5.598;2022-09-23T06:14:10;9.60;99.90
18930;DHT22;43305;52.186;5.598;2022-09-23T06:16:37;9.60;99.90
18930;DHT22;43305;52.186;5.598;2022-09-23T06:19:07;9.70;99.90
18930;DHT22;43305;52.186;5.598;2022-09-23T06:21:36;9.70;99.90
18930;DHT22;43305;52.186;5.598;2022-09-23T06:24:07;9.70;99.90
18930;DHT22;43305;52.186;5.598;2022-09-23T06:26:35;9.70;99.90
18930;DHT22;43305;52.186;5.598;2022-09-23T06:29:06;9.80;99.90
18930;DHT22;43305;52.186;5.598;2022-09-23T06:31:39;9.80;99.90
18930;DHT22;43305;52.186;5.598;2022-09-23T06:34:09;9.80;99.90
18930;DHT22;43305;52.186;5.598;2022-09-23T06:36:36;9.90;99.90
18930;DHT22;43305;52.186;5.598;2022-09-23T06:39:06;9.90;99.90
18930;DHT22;43305;52.186;5.598;2022-09-23T06:41:33;9.90;99.90
18930;DHT22;43305;52.186;5.598;2022-09-23T06:44:00;10.00;99.90
18930;DHT22;43305;52.186;5.598;2022-09-23T06:46:31;10.00;99.90
18930;DHT22;43305;52.186;5.598;2022-09-23T06:49:01;10.00;99.90
18930;DHT22;43305;52.186;5.598;2022-09-23T06:51:37;10.10;99.90
18930;DHT22;43305;52.186;5.598;2022-09-23T06:54:06;10.10;99.90
18930;DHT22;43305;52.186;5.598;2022-09-23T06:56:39;10.20;99.90
18930;DHT22;43305;52.186;5.598;2022-09-23T06:59:08;10.30;99.90
18930;DHT22;43305;52.186;5.598;2022-09-23T07:01:37;10.30;99.90
18930;DHT22;43305;52.186;5.598;2022-09-23T07:04:04;10.40;99.90
18930;DHT22;43305;52.186;5.598;2022-09-23T07:06:31;10.50;99.90
18930;DHT22;43305;52.186;5.598;2022-09-23T07:09:00;10.50;99.90
18930;DHT22;43305;52.186;5.598;2022-09-23T07:11:29;10.60;99.90
18930;DHT22;43305;52.186;5.598;2022-09-23T07:13:55;10.70;99.90
18930;DHT22;43305;52.186;5.598;2022-09-23T07:16:22;10.80;99.90
18930;DHT22;43305;52.186;5.598;2022-09-23T07:18:49;10.90;99.90
18930;DHT22;43305;52.186;5.598;2022-09-23T07:21:18;11.00;99.90
18930;DHT22;43305;52.186;5.598;2022-09-23T07:23:46;11.10;99.90
18930;DHT22;43305;52.186;5.598;2022-09-23T07:26:15;11.20;99.90
18930;DHT22;43305;52.186;5.598;2022-09-23T07:28:45;11.30;99.90
18930;DHT22;43305;52.186;5.598;2022-09-23T07:31:13;11.40;99.90
18930;DHT22;43305;52.186;5.598;2022-09-23T07:33:42;11.50;99.90
18930;DHT22;43305;52.186;5.598;2022-09-23T07:36:11;11.60;99.90
18930;DHT22;43305;52.186;5.598;2022-09-23T07:38:38;11.60;99.90
18930;DHT22;43305;52.186;5.598;2022-09-23T07:41:06;11.70;99.90
18930;DHT22;43305;52.186;5.598;2022-09-23T07:43:36;11.80;99.90
18930;DHT22;43305;52.186;5.598;2022-09-23T07:46:09;11.90;99.90
18930;DHT22;43305;52.186;5.598;2022-09-23T07:48:36;12.00;99.90
18930;DHT22;43305;52.186;5.598;2022-09-23T07:51:06;12.10;99.90
18930;DHT22;43305;52.186;5.598;2022-09-23T07:53:34;12.20;99.90
18930;DHT22;43305;52.186;5.598;2022-09-23T07:56:01;12.30;99.90
18930;DHT22;43305;52.186;5.598;2022-09-23T07:58:31;12.40;99.90
18930;DHT22;43305;52.186;5.598;2022-09-23T08:01:01;12.40;99.90
18930;DHT22;43305;52.186;5.598;2022-09-23T08:03:30;12.50;99.90
18930;DHT22;43305;52.186;5.598;2022-09-23T08:06:03;12.60;99.90
18930;DHT22;43305;52.186;5.598;2022-09-23T08:08:30;12.80;99.90
18930;DHT22;43305;52.186;5.598;2022-09-23T08:11:00;13.00;99.90
18930;DHT22;43305;52.186;5.598;2022-09-23T08:13:28;13.10;99.90
18930;DHT22;43305;52.186;5.598;2022-09-23T08:15:55;13.20;99.90
18930;DHT22;43305;52.186;5.598;2022-09-23T08:18:22;13.30;99.90
18930;DHT22;43305;52.186;5.598;2022-09-23T08:20:53;13.60;99.90
18930;DHT22;43305;52.186;5.598;2022-09-23T08:23:20;13.80;99.90
18930;DHT22;43305;52.186;5.598;2022-09-23T08:25:47;14.00;99.90
18930;DHT22;43305;52.186;5.598;2022-09-23T08:28:15;14.10;99.90
18930;DHT22;43305;52.186;5.598;2022-09-23T08:30:47;14.10;99.90
18930;DHT22;43305;52.186;5.598;2022-09-23T08:33:14;14.20;99.90
18930;DHT22;43305;52.186;5.598;2022-09-23T08:35:41;14.20;99.90
18930;DHT22;43305;52.186;5.598;2022-09-23T08:38:09;14.30;99.90
18930;DHT22;43305;52.186;5.598;2022-09-23T08:40:39;14.30;99.90
18930;DHT22;43305;52.186;5.598;2022-09-23T08:43:14;14.40;99.90
18930;DHT22;43305;52.186;5.598;2022-09-23T08:45:44;14.50;99.90
18930;DHT22;43305;52.186;5.598;2022-09-23T08:48:14;14.50;99.90
18930;DHT22;43305;52.186;5.598;2022-09-23T08:50:43;14.60;99.90
18930;DHT22;43305;52.186;5.598;2022-09-23T08:53:18;14.70;99.90
18930;DHT22;43305;52.186;5.598;2022-09-23T08:55:49;14.70;99.90
18930;DHT22;43305;52.186;5.598;2022-09-23T08:58:28;14.80;99.90
18930;DHT22;43305;52.186;5.598;2022-09-23T09:01:08;14.80;99.90
18930;DHT22;43305;52.186;5.598;2022-09-23T09:03:41;14.90;99.90
18930;DHT22;43305;52.186;5.598;2022-09-23T09:06:13;15.10;99.90
18930;DHT22;43305;52.186;5.598;2022-09-23T09:08:46;15.20;99.90
18930;DHT22;43305;52.186;5.598;2022-09-23T09:11:17;15.30;99.90
18930;DHT22;43305;52.186;5.598;2022-09-23T09:13:52;15.40;99.90
18930;DHT22;43305;52.186;5.598;2022-09-23T09:16:33;15.50;99.90
18930;DHT22;43305;52.186;5.598;2022-09-23T09:19:12;15.50;99.90
18930;DHT22;43305;52.186;5.598;2022-09-23T09:21:44;15.50;99.90
18930;DHT22;43305;52.186;5.598;2022-09-23T09:24:16;15.60;99.90
18930;DHT22;43305;52.186;5.598;2022-09-23T09:26:44;15.60;99.90
18930;DHT22;43305;52.186;5.598;2022-09-23T09:29:14;15.60;99.90
18930;DHT22;43305;52.186;5.598;2022-09-23T09:31:44;15.60;99.90
18930;DHT22;43305;52.186;5.598;2022-09-23T09:34:21;15.60;99.90
18930;DHT22;43305;52.186;5.598;2022-09-23T09:36:56;15.60;99.90
18930;DHT22;43305;52.186;5.598;2022-09-23T09:39:32;15.60;99.90
18930;DHT22;43305;52.186;5.598;2022-09-23T09:41:59;15.60;99.90
18930;DHT22;43305;52.186;5.598;2022-09-23T09:44:31;15.60;99.90
18930;DHT22;43305;52.186;5.598;2022-09-23T09:47:12;15.60;99.90
18930;DHT22;43305;52.186;5.598;2022-09-23T09:49:45;15.60;99.90
18930;DHT22;43305;52.186;5.598;2022-09-23T09:52:21;15.60;99.90
18930;DHT22;43305;52.186;5.598;2022-09-23T09:54:52;15.60;99.90
18930;DHT22;43305;52.186;5.598;2022-09-23T09:57:31;15.60;99.90
18930;DHT22;43305;52.186;5.598;2022-09-23T10:00:33;15.70;99.90
18930;DHT22;43305;52.186;5.598;2022-09-23T10:03:02;15.70;99.90
18930;DHT22;43305;52.186;5.598;2022-09-23T10:05:45;15.70;99.90
18930;DHT22;43305;52.186;5.598;2022-09-23T10:08:22;15.70;99.90
18930;DHT22;43305;52.186;5.598;2022-09-23T10:11:00;15.80;99.90
18930;DHT22;43305;52.186;5.598;2022-09-23T10:13:28;15.90;99.90
18930;DHT22;43305;52.186;5.598;2022-09-23T10:15:55;16.00;99.90
18930;DHT22;43305;52.186;5.598;2022-09-23T10:18:30;16.00;99.90
18930;DHT22;43305;52.186;5.598;2022-09-23T10:21:07;16.10;99.90
18930;DHT22;43305;52.186;5.598;2022-09-23T10:23:39;16.20;99.90
18930;DHT22;43305;52.186;5.598;2022-09-23T10:26:08;16.40;99.90
18930;DHT22;43305;52.186;5.598;2022-09-23T10:28:40;16.60;99.90
18930;DHT22;43305;52.186;5.598;2022-09-23T10:31:12;16.80;99.90
18930;DHT22;43305;52.186;5.598;2022-09-23T10:33:45;16.90;99.90
18930;DHT22;43305;52.186;5.598;2022-09-23T10:36:14;17.00;99.90
18930;DHT22;43305;52.186;5.598;2022-09-23T10:38:47;16.90;99.90
18930;DHT22;43305;52.186;5.598;2022-09-23T10:41:28;16.90;99.90
18930;DHT22;43305;52.186;5.598;2022-09-23T10:44:20;17.00;99.90
18930;DHT22;43305;52.186;5.598;2022-09-23T10:47:14;17.10;99.90
18930;DHT22;43305;52.186;5.598;2022-09-23T10:52:56;17.10;99.90
18930;DHT22;43305;52.186;5.598;2022-09-23T10:55:35;17.00;99.90
18930;DHT22;43305;52.186;5.598;2022-09-23T10:58:20;17.10;99.90
18930;DHT22;43305;52.186;5.598;2022-09-23T11:01:02;17.10;99.90
18930;DHT22;43305;52.186;5.598;2022-09-23T11:03:47;17.10;99.90
18930;DHT22;43305;52.186;5.598;2022-09-23T11:06:24;17.00;99.90
18930;DHT22;43305;52.186;5.598;2022-09-23T11:09:10;17.00;99.90
18930;DHT22;43305;52.186;5.598;2022-09-23T11:11:47;17.10;99.90
18930;DHT22;43305;52.186;5.598;2022-09-23T11:14:29;17.00;99.90
18930;DHT22;43305;52.186;5.598;2022-09-23T11:17:12;17.10;99.90
18930;DHT22;43305;52.186;5.598;2022-09-23T11:20:03;17.10;99.90
18930;DHT22;43305;52.186;5.598;2022-09-23T11:22:48;17.10;99.90
18930;DHT22;43305;52.186;5.598;2022-09-23T11:25:27;17.10;99.90
18930;DHT22;43305;52.186;5.598;2022-09-23T11:28:06;17.10;99.90
18930;DHT22;43305;52.186;5.598;2022-09-23T11:30:44;17.10;99.90
18930;DHT22;43305;52.186;5.598;2022-09-23T11:33:27;17.10;99.90
18930;DHT22;43305;52.186;5.598;2022-09-23T11:35:58;17.10;99.90
18930;DHT22;43305;52.186;5.598;2022-09-23T11:38:29;17.20;99.90
18930;DHT22;43305;52.186;5.598;2022-09-23T11:41:00;17.20;99.90
18930;DHT22;43305;52.186;5.598;2022-09-23T11:43:29;17.30;99.90
18930;DHT22;43305;52.186;5.598;2022-09-23T11:46:05;17.30;99.90
18930;DHT22;43305;52.186;5.598;2022-09-23T11:48:42;17.30;99.90
18930;DHT22;43305;52.186;5.598;2022-09-23T11:51:12;17.40;99.90
18930;DHT22;43305;52.186;5.598;2022-09-23T11:53:45;17.50;99.90
18930;DHT22;43305;52.186;5.598;2022-09-23T11:56:17;17.50;99.90
18930;DHT22;43305;52.186;5.598;2022-09-23T11:58:54;17.60;99.90
18930;DHT22;43305;52.186;5.598;2022-09-23T12:01:28;17.70;99.90
18930;DHT22;43305;52.186;5.598;2022-09-23T12:04:03;17.70;99.90
18930;DHT22;43305;52.186;5.598;2022-09-23T12:06:35;17.80;99.90
18930;DHT22;43305;52.186;5.598;2022-09-23T12:09:13;18.00;99.90
18930;DHT22;43305;52.186;5.598;2022-09-23T12:11:45;18.10;99.90
18930;DHT22;43305;52.186;5.598;2022-09-23T12:14:19;18.20;99.90
18930;DHT22;43305;52.186;5.598;2022-09-23T12:17:09;18.20;99.90
18930;DHT22;43305;52.186;5.598;2022-09-23T12:19:51;18.20;99.90
18930;DHT22;43305;52.186;5.598;2022-09-23T12:22:32;18.20;99.90
18930;DHT22;43305;52.186;5.598;2022-09-23T12:25:14;18.20;99.90
18930;DHT22;43305;52.186;5.598;2022-09-23T12:27:48;18.10;99.90
18930;DHT22;43305;52.186;5.598;2022-09-23T12:30:18;18.10;99.90
18930;DHT22;43305;52.186;5.598;2022-09-23T12:32:47;18.20;99.90
18930;DHT22;43305;52.186;5.598;2022-09-23T12:35:23;18.20;99.90
18930;DHT22;43305;52.186;5.598;2022-09-23T12:37:51;18.10;99.90
18930;DHT22;43305;52.186;5.598;2022-09-23T12:40:22;18.10;99.90
18930;DHT22;43305;52.186;5.598;2022-09-23T12:42:50;18.10;99.90
18930;DHT22;43305;52.186;5.598;2022-09-23T12:45:33;18.10;99.90
18930;DHT22;43305;52.186;5.598;2022-09-23T12:48:02;18.20;99.90
18930;DHT22;43305;52.186;5.598;2022-09-23T12:50:45;18.20;99.90
18930;DHT22;43305;52.186;5.598;2022-09-23T12:56:15;18.10;99.90
18930;DHT22;43305;52.186;5.598;2022-09-23T12:58:58;18.10;99.90
18930;DHT22;43305;52.186;5.598;2022-09-23T13:01:35;18.10;99.90
18930;DHT22;43305;52.186;5.598;2022-09-23T13:04:03;18.20;99.90
18930;DHT22;43305;52.186;5.598;2022-09-23T13:06:52;18.10;99.90
18930;DHT22;43305;52.186;5.598;2022-09-23T13:09:23;18.10;99.90
18930;DHT22;43305;52.186;5.598;2022-09-23T13:11:56;18.10;99.90
18930;DHT22;43305;52.186;5.598;2022-09-23T13:14:27;18.20;99.90
18930;DHT22;43305;52.186;5.598;2022-09-23T13:16:55;18.10;99.90
18930;DHT22;43305;52.186;5.598;2022-09-23T13:19:43;18.10;99.90
18930;DHT22;43305;52.186;5.598;2022-09-23T13:22:11;18.10;99.90
18930;DHT22;43305;52.186;5.598;2022-09-23T13:24:40;18.10;99.90
18930;DHT22;43305;52.186;5.598;2022-09-23T13:27:14;18.20;99.90
18930;DHT22;43305;52.186;5.598;2022-09-23T13:29:44;18.20;99.90
18930;DHT22;43305;52.186;5.598;2022-09-23T13:32:15;18.20;99.90
18930;DHT22;43305;52.186;5.598;2022-09-23T13:34:46;18.20;99.90
18930;DHT22;43305;52.186;5.598;2022-09-23T13:37:21;18.30;99.90
18930;DHT22;43305;52.186;5.598;2022-09-23T13:39:48;18.20;99.90
18930;DHT22;43305;52.186;5.598;2022-09-23T13:42:23;18.20;99.90
18930;DHT22;43305;52.186;5.598;2022-09-23T13:44:53;18.10;99.90
18930;DHT22;43305;52.186;5.598;2022-09-23T13:47:23;18.10;99.90
18930;DHT22;43305;52.186;5.598;2022-09-23T13:50:13;18.10;99.90
18930;DHT22;43305;52.186;5.598;2022-09-23T13:52:42;18.10;99.90
18930;DHT22;43305;52.186;5.598;2022-09-23T13:55:23;18.10;99.90
18930;DHT22;43305;52.186;5.598;2022-09-23T13:57:56;18.00;99.90
18930;DHT22;43305;52.186;5.598;2022-09-23T14:00:24;18.00;99.90
18930;DHT22;43305;52.186;5.598;2022-09-23T14:02:51;17.90;99.90
18930;DHT22;43305;52.186;5.598;2022-09-23T14:05:22;17.90;99.90
18930;DHT22;43305;52.186;5.598;2022-09-23T14:07:51;18.00;99.90
18930;DHT22;43305;52.186;5.598;2022-09-23T14:10:20;18.00;99.90
18930;DHT22;43305;52.186;5.598;2022-09-23T14:12:52;18.00;99.90
18930;DHT22;43305;52.186;5.598;2022-09-23T14:15:20;18.00;99.90
18930;DHT22;43305;52.186;5.598;2022-09-23T14:17:50;18.00;99.90
18930;DHT22;43305;52.186;5.598;2022-09-23T14:20:21;18.10;99.90
18930;DHT22;43305;52.186;5.598;2022-09-23T14:23:03;18.10;99.90
18930;DHT22;43305;52.186;5.598;2022-09-23T14:25:30;18.20;99.90
18930;DHT22;43305;52.186;5.598;2022-09-23T14:27:57;18.20;99.90
18930;DHT22;43305;52.186;5.598;2022-09-23T14:30:23;18.20;99.90
18930;DHT22;43305;52.186;5.598;2022-09-23T14:32:52;18.30;99.90
18930;DHT22;43305;52.186;5.598;2022-09-23T14:35:23;18.30;99.90
18930;DHT22;43305;52.186;5.598;2022-09-23T14:37:53;18.20;99.90
18930;DHT22;43305;52.186;5.598;2022-09-23T14:40:37;18.20;99.90
18930;DHT22;43305;52.186;5.598;2022-09-23T14:43:16;18.10;99.90
18930;DHT22;43305;52.186;5.598;2022-09-23T14:45:49;18.10;99.90
18930;DHT22;43305;52.186;5.598;2022-09-23T14:48:21;18.10;99.90
18930;DHT22;43305;52.186;5.598;2022-09-23T14:50:51;18.10;99.90
18930;DHT22;43305;52.186;5.598;2022-09-23T14:53:34;18.10;99.90
18930;DHT22;43305;52.186;5.598;2022-09-23T14:56:12;18.00;99.90
18930;DHT22;43305;52.186;5.598;2022-09-23T14:58:44;18.00;99.90
18930;DHT22;43305;52.186;5.598;2022-09-23T15:04:26;18.00;99.90
18930;DHT22;43305;52.186;5.598;2022-09-23T15:06:58;18.10;99.90
18930;DHT22;43305;52.186;5.598;2022-09-23T15:09:29;18.10;99.90
18930;DHT22;43305;52.186;5.598;2022-09-23T15:11:59;18.00;99.90
18930;DHT22;43305;52.186;5.598;2022-09-23T15:14:29;18.00;99.90
18930;DHT22;43305;52.186;5.598;2022-09-23T15:17:12;18.00;99.90
18930;DHT22;43305;52.186;5.598;2022-09-23T15:19:43;17.90;99.90
18930;DHT22;43305;52.186;5.598;2022-09-23T15:22:12;17.90;99.90
18930;DHT22;43305;52.186;5.598;2022-09-23T15:24:42;17.80;99.90
18930;DHT22;43305;52.186;5.598;2022-09-23T15:27:23;17.80;99.90
18930;DHT22;43305;52.186;5.598;2022-09-23T15:29:51;17.70;99.90
18930;DHT22;43305;52.186;5.598;2022-09-23T15:32:21;17.60;99.90
18930;DHT22;43305;52.186;5.598;2022-09-23T15:34:48;17.70;99.90
18930;DHT22;43305;52.186;5.598;2022-09-23T15:37:17;17.60;99.90
18930;DHT22;43305;52.186;5.598;2022-09-23T15:39:44;17.60;99.90
18930;DHT22;43305;52.186;5.598;2022-09-23T15:42:11;17.60;99.90
18930;DHT22;43305;52.186;5.598;2022-09-23T15:44:38;17.50;99.90
18930;DHT22;43305;52.186;5.598;2022-09-23T15:47:13;17.50;99.90
18930;DHT22;43305;52.186;5.598;2022-09-23T15:49:44;17.50;99.90
18930;DHT22;43305;52.186;5.598;2022-09-23T15:52:12;17.40;99.90
18930;DHT22;43305;52.186;5.598;2022-09-23T15:54:42;17.40;99.90
18930;DHT22;43305;52.186;5.598;2022-09-23T15:57:10;17.40;99.90
18930;DHT22;43305;52.186;5.598;2022-09-23T15:59:37;17.40;99.90
18930;DHT22;43305;52.186;5.598;2022-09-23T16:02:19;17.30;99.90
18930;DHT22;43305;52.186;5.598;2022-09-23T16:04:52;17.30;99.90
18930;DHT22;43305;52.186;5.598;2022-09-23T16:07:18;17.30;99.90
18930;DHT22;43305;52.186;5.598;2022-09-23T16:09:47;17.30;99.90
18930;DHT22;43305;52.186;5.598;2022-09-23T16:12:13;17.20;99.90
18930;DHT22;43305;52.186;5.598;2022-09-23T16:14:40;17.20;99.90